Wiarton Airport
CYVV : now visible

Airfield :











YOU CAN JOIN US ON...

 
LOGIN :

Register | Disclaimer

   EN    FR    IT 

 









Legend :    VFR   Marginal VFR   IFR   Intensive IFR   Very Intensive IFR
Visi :
Ceiling :
>= 8 km
>= 3000ft
5 to 8 km
1000 to 3000 ft
1500m to 5 km
500 to 1000 ft
800 to 1500m
200 to 500 ft
< 800m
< 200 ft
Symbols :   Thunderstorms  Fog  Heavy snow  Heavy precipitations  Wind > 20 kt






- Airport Elevation : 729 ft
- IATA code : YVV


CYVV - Wiarton

CURRENT METAR :
  • 090100Z 00000KT 15SM FEW250 23/17 A2990 RMK CI1 SLP123 DENSITY ALT 1900FT

EXPIRED METARs :
  • 090000Z VRB02KT 15SM FEW250 26/16 A2989 RMK CI1 CI TR SLP120 DENSITY ALT 2300FT
  • 082300Z 29004KT 240V320 15SM FEW040TCU FEW250 27/17 A2989 RMK TCU1CI1 TCU TR SLP122 DENSITY ALT 2300FT

Expired Forecast.
CZYZ FIR / North America



MET'MAP, your aeronautical weather chart ! - Copyright ORBIFLY December 2007 - Disclaimer

ORBIFLY MET'MAP TEAM :

Programming & Development : Alexandra Zaïnal
Concept & original design : Baudouin d'Aumeries
Assistance for programming : Marc-Olivier Méhu
Technical & hardware support : Manuel Goepfert

Contact : metmap@orbifly.com




SOURCES & CREDITS :

   NOAA       Earth
Advisory